Time;durP1;ratioP1;P1;durP2;ratioP2;P2;SDS_P1;SDS_P2;PMS_P1;PMS_P2;Temp;Humidity;BMP_temperature;BMP_pressure;BME280_temperature;BME280_humidity;BME280_pressure;Samples;Min_cycle;Max_cycle;Signal;HPM_P1;HPM_P2
2021/08/30 00:02:12;;;;;;;;;7.75;6.00;;;;;;;;5065681;28;8845;-80
2021/08/30 00:04:39;;;;;;;;;5.50;5.50;;;;;;;;5075601;28;8872;-81
2021/08/30 00:07:06;;;;;;;;;4.50;4.50;;;;;;;;5080491;28;9689;-80
2021/08/30 00:09:33;;;;;;;;;4.00;4.00;;;;;;;;5064199;28;9688;-82
2021/08/30 00:12:02;;;;;;;;;4.75;4.75;;;;;;;;5071740;28;8973;-81
2021/08/30 00:14:31;;;;;;;;;5.00;5.00;;;;;;;;5062956;28;8852;-81
2021/08/30 00:16:58;;;;;;;;;7.75;5.25;;;;;;;;5069418;28;9689;-80
2021/08/30 00:19:26;;;;;;;;;7.50;5.00;;;;;;;;5075502;28;8865;-82
2021/08/30 00:21:53;;;;;;;;;7.00;6.00;;;;;;;;5067974;28;8997;-82
2021/08/30 00:24:24;;;;;;;;;7.25;6.50;;;;;;;;5081052;28;8881;-82
2021/08/30 00:26:51;;;;;;;;;8.67;7.00;;;;;;;;5065827;28;8881;-82
2021/08/30 00:29:24;;;;;;;;;5.00;5.00;;;;;;;;5063832;28;8856;-76
2021/08/30 00:31:52;;;;;;;;;5.00;5.00;;;;;;;;5059977;28;8997;-82
2021/08/30 00:34:19;;;;;;;;;7.50;5.50;;;;;;;;5076556;28;9588;-82
2021/08/30 00:36:46;;;;;;;;;6.50;6.50;;;;;;;;5074826;28;8888;-83
2021/08/30 00:39:15;;;;;;;;;6.00;6.00;;;;;;;;5062969;28;8864;-82
2021/08/30 00:41:42;;;;;;;;;6.50;5.25;;;;;;;;5075534;28;8888;-82
2021/08/30 00:44:10;;;;;;;;;9.75;5.50;;;;;;;;5055917;28;8866;-81
2021/08/30 00:46:39;;;;;;;;;8.00;8.00;;;;;;;;5076858;28;8907;-81
2021/08/30 00:49:06;;;;;;;;;8.00;6.00;;;;;;;;5072871;28;8871;-82
2021/08/30 00:51:34;;;;;;;;;12.25;9.50;;;;;;;;5075031;28;8881;-79
2021/08/30 00:54:02;;;;;;;;;6.75;6.75;;;;;;;;5071141;28;8892;-81
2021/08/30 00:56:30;;;;;;;;;12.25;10.25;;;;;;;;5074855;28;8857;-81
2021/08/30 00:58:58;;;;;;;;;7.50;6.00;;;;;;;;5074806;28;9727;-81
2021/08/30 01:01:25;;;;;;;;;9.75;6.75;;;;;;;;5064402;28;8942;-80
2021/08/30 01:03:54;;;;;;;;;9.00;8.50;;;;;;;;5080260;28;9874;-82
2021/08/30 01:06:27;;;;;;;;;9.00;8.50;;;;;;;;5050223;28;8882;-81
2021/08/30 01:09:04;;;;;;;;;8.00;8.00;;;;;;;;5078258;28;8897;-82
2021/08/30 01:11:35;;;;;;;;;5.50;5.50;;;;;;;;5069123;28;8880;-82
2021/08/30 01:14:05;;;;;;;;;7.75;7.75;;;;;;;;5054770;28;8864;-81
2021/08/30 01:16:34;;;;;;;;;8.75;8.50;;;;;;;;5049072;28;8863;-80
2021/08/30 01:19:03;;;;;;;;;11.75;9.00;;;;;;;;5085955;28;8951;-80
2021/08/30 01:21:33;;;;;;;;;8.00;8.00;;;;;;;;5074323;28;8856;-81
2021/08/30 01:24:04;;;;;;;;;8.50;8.00;;;;;;;;5078706;28;8859;-82
2021/08/30 01:26:34;;;;;;;;;13.00;11.75;;;;;;;;5081267;28;9011;-81
2021/08/30 01:29:06;;;;;;;;;10.00;10.00;;;;;;;;5082456;28;8883;-81
2021/08/30 01:31:44;;;;;;;;;9.50;9.50;;;;;;;;5071972;28;8947;-80
2021/08/30 01:34:14;;;;;;;;;11.25;9.50;;;;;;;;5065860;28;8986;-80
2021/08/30 01:36:45;;;;;;;;;10.25;10.25;;;;;;;;5086260;28;9874;-81
2021/08/30 01:39:13;;;;;;;;;5.50;5.25;;;;;;;;5058779;28;9680;-79
2021/08/30 01:41:40;;;;;;;;;12.50;12.50;;;;;;;;5083620;28;8873;-82
2021/08/30 01:44:08;;;;;;;;;9.50;8.00;;;;;;;;5082022;28;8873;-82
2021/08/30 01:46:37;;;;;;;;;9.00;7.50;;;;;;;;5085641;28;8905;-82
2021/08/30 01:49:06;;;;;;;;;11.50;11.00;;;;;;;;5084925;28;8995;-81
2021/08/30 01:51:35;;;;;;;;;11.25;11.25;;;;;;;;5076641;28;8885;-81
2021/08/30 01:54:02;;;;;;;;;15.50;11.75;;;;;;;;5065351;28;8959;-80
2021/08/30 01:56:33;;;;;;;;;7.75;7.75;;;;;;;;5055359;28;8878;-81
2021/08/30 02:01:46;;;;;;;;;12.50;10.75;;;;;;;;5063391;28;8803;-82
2021/08/30 02:04:14;;;;;;;;;14.00;13.00;;;;;;;;5051992;28;8882;-78
2021/08/30 02:06:42;;;;;;;;;9.50;9.50;;;;;;;;5078913;28;8873;-80
2021/08/30 02:09:10;;;;;;;;;11.25;11.25;;;;;;;;5079086;28;8994;-81
2021/08/30 02:11:38;;;;;;;;;12.25;12.25;;;;;;;;5072328;28;8887;-82
2021/08/30 02:14:08;;;;;;;;;11.00;9.50;;;;;;;;5066284;28;8896;-78
2021/08/30 02:16:35;;;;;;;;;6.25;6.25;;;;;;;;5080352;28;8958;-78
2021/08/30 02:19:09;;;;;;;;;13.00;12.75;;;;;;;;5075896;28;8895;-82
2021/08/30 02:21:40;;;;;;;;;13.50;13.50;;;;;;;;5074010;28;8895;-80
2021/08/30 02:24:14;;;;;;;;;11.50;11.50;;;;;;;;5054302;28;8888;-82
2021/08/30 02:26:44;;;;;;;;;12.00;12.00;;;;;;;;5053682;28;8887;-83
2021/08/30 02:29:17;;;;;;;;;14.75;14.50;;;;;;;;5069604;28;9022;-81
2021/08/30 02:31:49;;;;;;;;;10.75;10.75;;;;;;;;5068562;28;8798;-81
2021/08/30 02:34:18;;;;;;;;;13.25;13.25;;;;;;;;5081427;28;8852;-81
2021/08/30 02:36:46;;;;;;;;;16.75;15.25;;;;;;;;5074811;28;8976;-81
2021/08/30 02:39:15;;;;;;;;;15.00;13.25;;;;;;;;5079509;28;8911;-80
2021/08/30 02:41:43;;;;;;;;;19.25;16.25;;;;;;;;5069140;28;8928;-82
2021/08/30 02:44:11;;;;;;;;;17.50;15.75;;;;;;;;5080140;28;8957;-80
2021/08/30 02:46:39;;;;;;;;;22.25;19.25;;;;;;;;5069395;28;8883;-80
2021/08/30 02:49:06;;;;;;;;;22.25;21.75;;;;;;;;5052844;28;8890;-80
2021/08/30 02:51:34;;;;;;;;;19.00;18.50;;;;;;;;5070339;28;8898;-81
2021/08/30 02:54:01;;;;;;;;;19.00;15.25;;;;;;;;5045660;28;8882;-80
2021/08/30 02:56:30;;;;;;;;;23.25;23.25;;;;;;;;5064332;28;8895;-81
2021/08/30 02:58:58;;;;;;;;;23.50;20.25;;;;;;;;5065844;28;8869;-81
2021/08/30 03:01:26;;;;;;;;;17.50;16.00;;;;;;;;5072176;28;8813;-80
2021/08/30 03:03:54;;;;;;;;;20.00;20.00;;;;;;;;5078183;28;8850;-80
2021/08/30 03:06:21;;;;;;;;;19.75;19.00;;;;;;;;5083607;28;8893;-80
2021/08/30 03:08:49;;;;;;;;;17.00;15.75;;;;;;;;5074399;28;8905;-81
2021/08/30 03:11:17;;;;;;;;;20.25;20.25;;;;;;;;5070952;28;8890;-79
2021/08/30 03:13:47;;;;;;;;;19.50;17.75;;;;;;;;5050260;28;8873;-80
2021/08/30 03:16:14;;;;;;;;;22.00;19.25;;;;;;;;5057857;28;9640;-80
2021/08/30 03:18:43;;;;;;;;;21.25;20.75;;;;;;;;5076147;28;8890;-80
2021/08/30 03:21:11;;;;;;;;;25.25;24.50;;;;;;;;5066424;28;8871;-81
2021/08/30 03:23:40;;;;;;;;;20.25;19.75;;;;;;;;5063721;28;8903;-81
2021/08/30 03:26:08;;;;;;;;;22.50;22.00;;;;;;;;5073335;28;8863;-81
2021/08/30 03:28:36;;;;;;;;;24.75;22.75;;;;;;;;5080415;28;8881;-79
2021/08/30 03:31:05;;;;;;;;;25.00;23.50;;;;;;;;5062256;28;8832;-81
2021/08/30 03:33:33;;;;;;;;;30.00;26.75;;;;;;;;5051752;28;10037;-82
2021/08/30 03:36:02;;;;;;;;;22.25;22.25;;;;;;;;5084321;28;8983;-82
2021/08/30 03:38:29;;;;;;;;;19.75;18.50;;;;;;;;5076310;28;8942;-81
2021/08/30 03:40:57;;;;;;;;;20.50;20.50;;;;;;;;5072282;28;8855;-81
2021/08/30 03:43:26;;;;;;;;;23.00;23.00;;;;;;;;5071575;28;8927;-81
2021/08/30 03:45:55;;;;;;;;;26.25;26.25;;;;;;;;5082394;28;8865;-78
2021/08/30 03:48:24;;;;;;;;;26.00;26.00;;;;;;;;5082767;28;8919;-81
2021/08/30 03:50:53;;;;;;;;;33.50;29.25;;;;;;;;5068740;28;9706;-80
2021/08/30 03:53:21;;;;;;;;;23.25;23.25;;;;;;;;5064512;28;8894;-80
2021/08/30 03:55:48;;;;;;;;;23.75;23.75;;;;;;;;5062987;28;8921;-80
2021/08/30 03:58:18;;;;;;;;;26.25;26.25;;;;;;;;5073054;28;8871;-80
2021/08/30 04:00:45;;;;;;;;;29.00;27.00;;;;;;;;5064040;28;8847;-80
2021/08/30 04:03:14;;;;;;;;;27.25;26.75;;;;;;;;5074388;28;9012;-81
2021/08/30 04:05:43;;;;;;;;;29.25;26.25;;;;;;;;5073236;28;8890;-81
2021/08/30 04:08:10;;;;;;;;;28.00;25.75;;;;;;;;5029679;28;8878;-80
2021/08/30 04:10:38;;;;;;;;;29.00;26.75;;;;;;;;5077693;28;8964;-79
2021/08/30 04:13:05;;;;;;;;;25.25;22.00;;;;;;;;5073349;28;9029;-80
2021/08/30 04:15:36;;;;;;;;;31.50;28.00;;;;;;;;5067699;28;8906;-80
2021/08/30 04:18:03;;;;;;;;;31.50;29.00;;;;;;;;5083195;28;8876;-78
2021/08/30 04:20:30;;;;;;;;;34.50;30.75;;;;;;;;5063769;28;8868;-78
2021/08/30 04:22:59;;;;;;;;;33.75;29.75;;;;;;;;5079836;28;8868;-78
2021/08/30 04:25:26;;;;;;;;;27.25;27.25;;;;;;;;5063192;28;8869;-78
2021/08/30 04:27:54;;;;;;;;;30.75;30.25;;;;;;;;5087420;28;8980;-78
2021/08/30 04:30:21;;;;;;;;;44.00;36.00;;;;;;;;5066962;28;9729;-81
2021/08/30 04:32:50;;;;;;;;;36.25;32.75;;;;;;;;5048586;28;8990;-81
2021/08/30 04:35:18;;;;;;;;;41.00;34.75;;;;;;;;5079781;28;8853;-80
2021/08/30 04:37:45;;;;;;;;;33.25;29.00;;;;;;;;5073839;28;8872;-80
2021/08/30 04:40:15;;;;;;;;;37.00;33.00;;;;;;;;5067452;28;9657;-77
2021/08/30 04:42:42;;;;;;;;;31.00;31.00;;;;;;;;5066287;28;8904;-81
2021/08/30 04:45:10;;;;;;;;;38.25;34.25;;;;;;;;5067210;28;8893;-80
2021/08/30 04:47:38;;;;;;;;;36.25;33.25;;;;;;;;5072966;28;8877;-81
2021/08/30 04:50:06;;;;;;;;;42.00;32.75;;;;;;;;5068414;28;8872;-80
2021/08/30 04:52:34;;;;;;;;;37.50;31.25;;;;;;;;5068421;28;8856;-81
2021/08/30 04:55:01;;;;;;;;;34.50;31.75;;;;;;;;5070944;28;8876;-81
2021/08/30 04:57:30;;;;;;;;;36.25;32.75;;;;;;;;5066690;28;8903;-80
2021/08/30 04:59:57;;;;;;;;;35.00;31.75;;;;;;;;5069071;28;8879;-81
2021/08/30 05:02:25;;;;;;;;;38.25;32.75;;;;;;;;5079753;28;8817;-80
2021/08/30 05:04:55;;;;;;;;;31.25;30.25;;;;;;;;5075000;28;8884;-81
2021/08/30 05:07:22;;;;;;;;;34.75;33.50;;;;;;;;5086656;28;8885;-81
2021/08/30 05:09:49;;;;;;;;;31.75;30.00;;;;;;;;5080204;28;8885;-80
2021/08/30 05:12:17;;;;;;;;;32.75;30.50;;;;;;;;5081946;28;8885;-80
2021/08/30 05:14:45;;;;;;;;;37.75;33.50;;;;;;;;5075884;28;9524;-80
2021/08/30 05:17:12;;;;;;;;;34.00;32.25;;;;;;;;5065391;28;9759;-81
2021/08/30 05:19:40;;;;;;;;;35.50;30.50;;;;;;;;5071944;28;8872;-82
2021/08/30 05:22:07;;;;;;;;;31.25;30.50;;;;;;;;5065847;28;8884;-75
2021/08/30 05:24:34;;;;;;;;;35.00;32.75;;;;;;;;5074369;28;8865;-75
2021/08/30 05:27:02;;;;;;;;;31.00;31.00;;;;;;;;5086260;28;8883;-73
2021/08/30 05:29:29;;;;;;;;;35.25;32.00;;;;;;;;5084976;28;8899;-76
2021/08/30 05:31:58;;;;;;;;;34.75;32.50;;;;;;;;5067701;28;9590;-75
2021/08/30 05:34:25;;;;;;;;;33.00;30.00;;;;;;;;5064404;28;8876;-75
2021/08/30 05:36:53;;;;;;;;;29.50;29.50;;;;;;;;5064386;28;8879;-74
2021/08/30 05:39:20;;;;;;;;;32.25;29.75;;;;;;;;5063982;28;8904;-75
2021/08/30 05:41:47;;;;;;;;;34.75;32.00;;;;;;;;5065350;28;8856;-75
2021/08/30 05:44:15;;;;;;;;;35.25;32.00;;;;;;;;5065025;28;8860;-75
2021/08/30 05:46:42;;;;;;;;;36.25;32.25;;;;;;;;5063749;28;8852;-75
2021/08/30 05:49:11;;;;;;;;;27.75;27.25;;;;;;;;5065371;28;8856;-75
2021/08/30 05:51:38;;;;;;;;;24.75;23.25;;;;;;;;5064164;28;8860;-75
2021/08/30 05:54:06;;;;;;;;;30.25;25.75;;;;;;;;5064377;28;8871;-75
2021/08/30 05:56:33;;;;;;;;;33.00;30.25;;;;;;;;5061650;28;8866;-75
2021/08/30 05:59:00;;;;;;;;;27.75;25.75;;;;;;;;5063279;28;8910;-74
2021/08/30 06:01:28;;;;;;;;;22.00;20.50;;;;;;;;5063497;28;8793;-74
2021/08/30 06:03:55;;;;;;;;;27.00;25.50;;;;;;;;5063980;28;8864;-75
2021/08/30 06:06:24;;;;;;;;;24.50;24.50;;;;;;;;5065471;28;8832;-75
2021/08/30 06:08:51;;;;;;;;;24.25;22.75;;;;;;;;5045726;28;8883;-75
2021/08/30 06:11:18;;;;;;;;;28.00;28.00;;;;;;;;5064860;28;8867;-74
2021/08/30 06:13:46;;;;;;;;;29.25;27.25;;;;;;;;5059096;28;8903;-75
2021/08/30 06:16:13;;;;;;;;;30.25;28.75;;;;;;;;5064596;28;8866;-74
2021/08/30 06:18:40;;;;;;;;;29.00;24.75;;;;;;;;5064494;28;8864;-75
2021/08/30 06:21:08;;;;;;;;;31.75;26.50;;;;;;;;5064102;28;9678;-75
2021/08/30 06:23:36;;;;;;;;;33.25;30.50;;;;;;;;5064569;28;9660;-75
2021/08/30 06:26:04;;;;;;;;;29.00;29.00;;;;;;;;5063529;28;8860;-75
2021/08/30 06:28:31;;;;;;;;;27.75;25.75;;;;;;;;5064330;28;8880;-75
2021/08/30 06:30:59;;;;;;;;;29.25;28.25;;;;;;;;5062747;28;9621;-75
2021/08/30 06:33:26;;;;;;;;;29.25;25.25;;;;;;;;5064690;28;8879;-74
2021/08/30 06:35:53;;;;;;;;;31.75;27.50;;;;;;;;5063259;28;8863;-75
2021/08/30 06:38:21;;;;;;;;;34.50;28.25;;;;;;;;5063510;28;9629;-74
2021/08/30 06:40:51;;;;;;;;;29.25;29.25;;;;;;;;5064260;28;8852;-74
2021/08/30 06:43:18;;;;;;;;;34.75;29.75;;;;;;;;5063567;28;8875;-75
2021/08/30 06:45:45;;;;;;;;;25.75;25.25;;;;;;;;5063264;28;8863;-75
2021/08/30 06:48:12;;;;;;;;;20.50;20.50;;;;;;;;5063099;28;8905;-75
2021/08/30 06:50:42;;;;;;;;;30.50;27.75;;;;;;;;5064121;28;8875;-75
2021/08/30 06:53:11;;;;;;;;;29.75;29.75;;;;;;;;5063319;28;8848;-74
2021/08/30 06:55:39;;;;;;;;;20.75;20.75;;;;;;;;5063678;28;8956;-75
2021/08/30 06:58:07;;;;;;;;;25.25;23.25;;;;;;;;5060783;28;9010;-74
2021/08/30 07:00:34;;;;;;;;;29.25;26.50;;;;;;;;5061585;28;8854;-74
2021/08/30 07:03:02;;;;;;;;;25.75;22.75;;;;;;;;5070202;28;8925;-74
2021/08/30 07:05:30;;;;;;;;;28.00;25.50;;;;;;;;5080670;28;8899;-74
2021/08/30 07:07:57;;;;;;;;;27.25;26.75;;;;;;;;5063645;28;8902;-74
2021/08/30 07:10:24;;;;;;;;;27.50;23.25;;;;;;;;5062470;28;8917;-74
2021/08/30 07:12:52;;;;;;;;;29.25;26.25;;;;;;;;5045539;28;9007;-74
2021/08/30 07:15:20;;;;;;;;;27.00;27.00;;;;;;;;5067183;28;8979;-74
2021/08/30 07:17:48;;;;;;;;;30.25;29.00;;;;;;;;5083502;28;8853;-74
2021/08/30 07:20:15;;;;;;;;;26.75;25.25;;;;;;;;5066863;28;8840;-74
2021/08/30 07:22:43;;;;;;;;;31.00;27.50;;;;;;;;5062094;28;8856;-73
2021/08/30 07:25:11;;;;;;;;;36.00;30.75;;;;;;;;5063130;28;8982;-75
2021/08/30 07:27:38;;;;;;;;;22.25;22.25;;;;;;;;5062585;28;8976;-73
2021/08/30 07:30:06;;;;;;;;;35.50;31.75;;;;;;;;5062703;28;9606;-75
2021/08/30 07:32:35;;;;;;;;;29.75;29.75;;;;;;;;5063402;28;8876;-73
2021/08/30 07:35:02;;;;;;;;;26.00;26.00;;;;;;;;5062813;28;8868;-74
2021/08/30 07:37:30;;;;;;;;;21.25;21.25;;;;;;;;5062289;28;8848;-74
2021/08/30 07:39:57;;;;;;;;;30.50;27.25;;;;;;;;5062092;28;8902;-73
2021/08/30 07:42:26;;;;;;;;;22.00;22.00;;;;;;;;5063831;28;8886;-74
2021/08/30 07:44:53;;;;;;;;;25.50;25.50;;;;;;;;5062553;28;8872;-73
2021/08/30 07:47:20;;;;;;;;;25.25;22.50;;;;;;;;5060720;28;8885;-74
2021/08/30 07:49:49;;;;;;;;;25.75;25.50;;;;;;;;5066581;28;8884;-74
2021/08/30 07:52:19;;;;;;;;;26.00;24.00;;;;;;;;5066724;28;9698;-74
2021/08/30 07:54:47;;;;;;;;;23.75;23.75;;;;;;;;5047605;28;8858;-75
2021/08/30 07:57:14;;;;;;;;;23.00;23.00;;;;;;;;5066037;28;8860;-74
2021/08/30 07:59:41;;;;;;;;;16.25;16.25;;;;;;;;5067213;28;8933;-75
2021/08/30 08:02:09;;;;;;;;;25.75;25.75;;;;;;;;5065302;28;8809;-75
2021/08/30 08:04:36;;;;;;;;;23.00;21.50;;;;;;;;5067217;28;9659;-75
2021/08/30 08:07:05;;;;;;;;;27.75;22.50;;;;;;;;5066716;28;8872;-75
2021/08/30 08:09:32;;;;;;;;;27.25;22.00;;;;;;;;5066677;28;8994;-75
2021/08/30 08:12:00;;;;;;;;;24.00;22.00;;;;;;;;5064440;28;8880;-76
2021/08/30 08:14:27;;;;;;;;;19.00;18.25;;;;;;;;5067326;28;8861;-77
2021/08/30 08:16:54;;;;;;;;;26.50;24.75;;;;;;;;5066830;28;8894;-75
2021/08/30 08:19:22;;;;;;;;;23.75;23.75;;;;;;;;5065477;28;9566;-75
2021/08/30 08:21:49;;;;;;;;;23.00;23.00;;;;;;;;5066478;28;8856;-75
2021/08/30 08:24:18;;;;;;;;;23.25;21.25;;;;;;;;5066093;28;8890;-75
2021/08/30 08:26:46;;;;;;;;;22.00;19.00;;;;;;;;5065612;28;8993;-75
2021/08/30 08:29:13;;;;;;;;;18.40;18.40;;;;;;;;5048916;28;8858;-75
2021/08/30 08:31:40;;;;;;;;;17.00;17.00;;;;;;;;5064681;28;8804;-75
2021/08/30 08:34:07;;;;;;;;;14.00;13.20;;;;;;;;5067485;28;8888;-75
2021/08/30 08:36:35;;;;;;;;;16.60;14.20;;;;;;;;5066315;28;8997;-75
2021/08/30 08:39:03;;;;;;;;;14.60;13.40;;;;;;;;5054956;28;8877;-75
2021/08/30 08:41:32;;;;;;;;;11.20;9.20;;;;;;;;5084385;28;8875;-75
2021/08/30 08:43:59;;;;;;;;;14.20;14.20;;;;;;;;5079807;28;8860;-75
2021/08/30 08:46:27;;;;;;;;;13.00;12.40;;;;;;;;5086314;28;8991;-75
2021/08/30 08:48:55;;;;;;;;;11.40;11.40;;;;;;;;5075056;28;8871;-75
2021/08/30 08:51:22;;;;;;;;;13.40;13.20;;;;;;;;5065977;28;8868;-75
2021/08/30 08:53:50;;;;;;;;;8.80;8.80;;;;;;;;5047469;28;8982;-75
2021/08/30 08:56:21;;;;;;;;;18.00;16.40;;;;;;;;5063092;28;8868;-75
2021/08/30 08:58:50;;;;;;;;;15.00;15.00;;;;;;;;5063438;28;8860;-75
2021/08/30 09:01:24;;;;;;;;;14.00;14.00;;;;;;;;5065424;28;8813;-75
2021/08/30 09:03:55;;;;;;;;;14.00;14.00;;;;;;;;5065650;28;8956;-75
2021/08/30 09:06:27;;;;;;;;;14.60;12.00;;;;;;;;5065211;28;8999;-75
2021/08/30 09:08:58;;;;;;;;;16.80;11.20;;;;;;;;5061651;28;8898;-76
2021/08/30 09:11:34;;;;;;;;;15.00;13.20;;;;;;;;5046258;28;8957;-75
2021/08/30 09:14:02;;;;;;;;;13.40;13.40;;;;;;;;5048085;28;9631;-75
2021/08/30 09:16:30;;;;;;;;;15.40;15.00;;;;;;;;5067649;28;9673;-75
2021/08/30 09:19:05;;;;;;;;;14.00;12.20;;;;;;;;5047110;28;8883;-75
2021/08/30 09:21:34;;;;;;;;;16.00;13.20;;;;;;;;5065900;28;8867;-74
2021/08/30 09:24:11;;;;;;;;;11.40;10.40;;;;;;;;5064991;28;8927;-75
2021/08/30 09:26:47;;;;;;;;;13.80;12.60;;;;;;;;5062905;28;8957;-75
2021/08/30 09:29:23;;;;;;;;;11.20;11.20;;;;;;;;5064492;28;9018;-75
2021/08/30 09:32:06;;;;;;;;;14.00;14.00;;;;;;;;5065141;28;8812;-75
2021/08/30 09:34:35;;;;;;;;;11.00;11.00;;;;;;;;5066192;28;8901;-75
2021/08/30 09:37:03;;;;;;;;;16.00;13.60;;;;;;;;5071990;28;9741;-74
2021/08/30 09:39:32;;;;;;;;;14.20;13.40;;;;;;;;5066418;28;8934;-75
2021/08/30 09:42:00;;;;;;;;;18.80;18.80;;;;;;;;5064588;28;8898;-75
2021/08/30 09:44:30;;;;;;;;;13.80;13.80;;;;;;;;5065870;28;8875;-75
2021/08/30 09:47:07;;;;;;;;;15.00;13.40;;;;;;;;5063802;28;8880;-75
2021/08/30 09:49:35;;;;;;;;;15.20;13.40;;;;;;;;5064624;28;8982;-75
2021/08/30 09:52:02;;;;;;;;;14.80;13.60;;;;;;;;5064794;28;8945;-76
2021/08/30 09:54:30;;;;;;;;;16.60;15.60;;;;;;;;5063825;28;8882;-74
2021/08/30 09:56:58;;;;;;;;;17.20;15.00;;;;;;;;5064810;28;8875;-75
2021/08/30 09:59:27;;;;;;;;;10.80;10.60;;;;;;;;5045445;28;9669;-75
2021/08/30 10:01:56;;;;;;;;;14.40;14.40;;;;;;;;5064299;28;8820;-75
2021/08/30 10:04:25;;;;;;;;;16.60;14.00;;;;;;;;5064147;28;8879;-75
2021/08/30 10:06:53;;;;;;;;;14.00;14.00;;;;;;;;5064976;28;8863;-75
2021/08/30 10:09:21;;;;;;;;;20.60;18.00;;;;;;;;5065542;28;8885;-75
2021/08/30 10:11:52;;;;;;;;;17.00;17.00;;;;;;;;5059478;28;8872;-75
2021/08/30 10:14:21;;;;;;;;;15.00;15.00;;;;;;;;5057891;28;8863;-74
2021/08/30 10:16:49;;;;;;;;;15.80;15.80;;;;;;;;5076370;28;8881;-74
2021/08/30 10:19:28;;;;;;;;;16.60;15.20;;;;;;;;5085141;28;8911;-74
2021/08/30 10:21:56;;;;;;;;;17.20;17.20;;;;;;;;5083003;28;8899;-75
2021/08/30 10:24:28;;;;;;;;;15.40;15.20;;;;;;;;5065317;28;8898;-76
2021/08/30 10:27:03;;;;;;;;;18.40;16.80;;;;;;;;5048672;28;8891;-76
2021/08/30 10:29:34;;;;;;;;;13.40;13.40;;;;;;;;5083474;28;8893;-76
2021/08/30 10:32:02;;;;;;;;;15.40;14.20;;;;;;;;5084550;28;8882;-76
2021/08/30 10:34:32;;;;;;;;;16.40;16.40;;;;;;;;5057960;28;8902;-75
2021/08/30 10:37:00;;;;;;;;;16.40;16.40;;;;;;;;5062667;28;8860;-76
2021/08/30 10:39:38;;;;;;;;;21.00;18.20;;;;;;;;5063875;28;8890;-76
2021/08/30 10:42:05;;;;;;;;;14.40;14.40;;;;;;;;5061786;28;9000;-76
2021/08/30 10:44:34;;;;;;;;;14.00;14.00;;;;;;;;5068367;28;9466;-77
2021/08/30 10:47:11;;;;;;;;;14.80;14.80;;;;;;;;5073895;28;8889;-76
2021/08/30 10:49:42;;;;;;;;;12.40;12.40;;;;;;;;5064518;28;8872;-76
2021/08/30 10:52:12;;;;;;;;;15.60;14.00;;;;;;;;5058469;28;8856;-77
2021/08/30 10:54:51;;;;;;;;;17.20;16.20;;;;;;;;5065184;28;8918;-77
2021/08/30 10:57:18;;;;;;;;;15.40;15.40;;;;;;;;5063270;28;8867;-76
2021/08/30 10:59:47;;;;;;;;;13.00;13.00;;;;;;;;5062610;28;8868;-77
2021/08/30 11:02:15;;;;;;;;;13.80;13.80;;;;;;;;5061753;28;8917;-76
2021/08/30 11:04:44;;;;;;;;;17.00;17.00;;;;;;;;5060964;28;8880;-76
2021/08/30 11:07:11;;;;;;;;;17.40;14.60;;;;;;;;5071365;28;8875;-77
2021/08/30 11:09:47;;;;;;;;;17.40;15.40;;;;;;;;5071473;28;8854;-77
2021/08/30 11:12:16;;;;;;;;;16.80;16.80;;;;;;;;5060355;28;8996;-77
2021/08/30 11:14:43;;;;;;;;;15.40;15.40;;;;;;;;5059811;28;9699;-76
2021/08/30 11:17:13;;;;;;;;;18.00;18.00;;;;;;;;5067180;28;9622;-76
2021/08/30 11:19:42;;;;;;;;;17.00;16.00;;;;;;;;5063172;28;8856;-77
2021/08/30 11:22:10;;;;;;;;;17.40;15.60;;;;;;;;5065427;28;9023;-79
2021/08/30 11:24:40;;;;;;;;;11.40;11.40;;;;;;;;5063522;28;8900;-76
2021/08/30 11:27:09;;;;;;;;;12.80;12.80;;;;;;;;5074440;28;9002;-78
2021/08/30 11:29:41;;;;;;;;;11.80;11.80;;;;;;;;5073742;28;8957;-77
2021/08/30 11:32:09;;;;;;;;;13.60;13.60;;;;;;;;5083358;28;8826;-77
2021/08/30 11:34:38;;;;;;;;;14.40;14.40;;;;;;;;5071052;28;8886;-77
2021/08/30 11:37:09;;;;;;;;;15.20;13.60;;;;;;;;5073907;28;9733;-77
2021/08/30 11:39:38;;;;;;;;;17.20;14.40;;;;;;;;5072478;28;9008;-77
2021/08/30 11:42:07;;;;;;;;;17.40;16.00;;;;;;;;5033194;28;8905;-78
2021/08/30 11:44:36;;;;;;;;;12.60;12.20;;;;;;;;5062966;28;8827;-78
2021/08/30 11:47:05;;;;;;;;;18.00;15.80;;;;;;;;5062951;28;8917;-77
2021/08/30 11:49:38;;;;;;;;;17.20;17.20;;;;;;;;5063284;28;8848;-77
2021/08/30 11:52:08;;;;;;;;;13.20;11.80;;;;;;;;5062053;28;8887;-77
2021/08/30 11:54:37;;;;;;;;;18.00;18.00;;;;;;;;5061802;28;8872;-77
2021/08/30 11:57:06;;;;;;;;;15.00;15.00;;;;;;;;5062297;28;8860;-76
2021/08/30 11:59:35;;;;;;;;;17.40;17.40;;;;;;;;5061763;28;8856;-77
2021/08/30 12:02:03;;;;;;;;;15.80;15.40;;;;;;;;5062209;28;8824;-75
2021/08/30 12:04:32;;;;;;;;;16.80;16.80;;;;;;;;5062267;28;8878;-77
2021/08/30 12:07:02;;;;;;;;;16.00;13.60;;;;;;;;5063501;28;9030;-77
2021/08/30 12:09:42;;;;;;;;;15.00;15.00;;;;;;;;5043165;28;8902;-77
2021/08/30 12:12:17;;;;;;;;;14.40;13.40;;;;;;;;5063375;28;8852;-77
2021/08/30 12:14:59;;;;;;;;;13.20;12.60;;;;;;;;5060163;28;8965;-77
2021/08/30 12:17:27;;;;;;;;;15.80;15.80;;;;;;;;5062171;28;8884;-77
2021/08/30 12:19:55;;;;;;;;;9.60;9.60;;;;;;;;5063204;28;8870;-77
2021/08/30 12:22:25;;;;;;;;;18.20;18.20;;;;;;;;5061801;28;8918;-77
2021/08/30 12:25:01;;;;;;;;;13.20;12.60;;;;;;;;5044820;28;8888;-78
2021/08/30 12:27:32;;;;;;;;;13.00;13.00;;;;;;;;5061634;28;8876;-78
2021/08/30 12:30:12;;;;;;;;;14.80;14.00;;;;;;;;5063077;28;8879;-77
2021/08/30 12:32:54;;;;;;;;;17.40;17.40;;;;;;;;5062435;28;8820;-77
2021/08/30 12:35:25;;;;;;;;;14.40;14.40;;;;;;;;5063527;28;8996;-77
2021/08/30 12:37:53;;;;;;;;;14.60;14.40;;;;;;;;5064450;28;8971;-77
2021/08/30 12:40:23;;;;;;;;;12.00;10.60;;;;;;;;5065410;28;8872;-77
2021/08/30 12:42:51;;;;;;;;;12.80;11.80;;;;;;;;5066768;28;8860;-77
2021/08/30 12:45:18;;;;;;;;;15.00;13.20;;;;;;;;5065607;28;8874;-77
2021/08/30 12:47:46;;;;;;;;;13.80;13.80;;;;;;;;5065947;28;9680;-77
2021/08/30 12:50:14;;;;;;;;;13.80;13.80;;;;;;;;5066646;28;8870;-76
2021/08/30 12:52:42;;;;;;;;;17.80;15.60;;;;;;;;5047242;28;9755;-76
2021/08/30 12:55:11;;;;;;;;;12.20;12.20;;;;;;;;5065923;28;8978;-77
2021/08/30 12:57:40;;;;;;;;;12.20;12.20;;;;;;;;5065354;28;8860;-75
2021/08/30 13:00:10;;;;;;;;;13.40;13.20;;;;;;;;5064829;28;8864;-75
2021/08/30 13:02:38;;;;;;;;;13.20;13.20;;;;;;;;5065351;28;8883;-76
2021/08/30 13:05:06;;;;;;;;;13.40;13.40;;;;;;;;5047876;28;8879;-75
2021/08/30 13:07:34;;;;;;;;;19.40;16.40;;;;;;;;5066386;28;8852;-76
2021/08/30 13:10:01;;;;;;;;;15.00;15.00;;;;;;;;5065461;28;8871;-75
2021/08/30 13:12:28;;;;;;;;;19.80;19.80;;;;;;;;5066125;28;8856;-77
2021/08/30 13:14:57;;;;;;;;;18.20;18.20;;;;;;;;5052068;28;8878;-77
2021/08/30 13:17:24;;;;;;;;;18.80;17.60;;;;;;;;5066379;28;8871;-76
2021/08/30 13:19:52;;;;;;;;;18.00;18.00;;;;;;;;5064566;28;8871;-76
2021/08/30 13:22:19;;;;;;;;;14.40;14.40;;;;;;;;5066535;28;8978;-78
2021/08/30 13:24:46;;;;;;;;;16.80;15.80;;;;;;;;5043677;28;8856;-78
2021/08/30 13:27:13;;;;;;;;;14.00;14.00;;;;;;;;5071514;28;8884;-77
2021/08/30 13:29:42;;;;;;;;;16.80;15.60;;;;;;;;5086189;28;8857;-78
2021/08/30 13:32:15;;;;;;;;;14.40;14.40;;;;;;;;5062956;28;8975;-78
2021/08/30 13:34:44;;;;;;;;;16.40;14.60;;;;;;;;5065112;28;8895;-78
2021/08/30 13:37:11;;;;;;;;;16.60;15.20;;;;;;;;5065170;28;9672;-77
2021/08/30 13:39:39;;;;;;;;;15.60;15.60;;;;;;;;5066122;28;8982;-78
2021/08/30 13:42:06;;;;;;;;;16.00;16.00;;;;;;;;5064948;28;8929;-77
2021/08/30 13:44:34;;;;;;;;;21.20;20.00;;;;;;;;5065074;28;8872;-77
2021/08/30 13:47:01;;;;;;;;;19.80;19.80;;;;;;;;5066605;28;8867;-77
2021/08/30 13:49:30;;;;;;;;;18.80;18.40;;;;;;;;5064029;28;8913;-77
2021/08/30 13:51:57;;;;;;;;;19.20;19.20;;;;;;;;5047396;28;8931;-78
2021/08/30 13:54:25;;;;;;;;;11.60;11.60;;;;;;;;5045909;28;8902;-78
2021/08/30 13:56:52;;;;;;;;;16.20;16.00;;;;;;;;5047056;28;8879;-77
2021/08/30 13:59:20;;;;;;;;;18.00;18.00;;;;;;;;5062628;28;8878;-77
2021/08/30 14:01:47;;;;;;;;;16.80;16.80;;;;;;;;5063747;28;8854;-76
2021/08/30 14:04:14;;;;;;;;;20.20;19.60;;;;;;;;5064850;28;8859;-78
2021/08/30 14:06:43;;;;;;;;;22.40;22.40;;;;;;;;5063940;28;8871;-77
2021/08/30 14:09:10;;;;;;;;;20.80;19.60;;;;;;;;5064948;28;8871;-78
2021/08/30 14:11:37;;;;;;;;;21.80;20.40;;;;;;;;5063846;28;8875;-76
2021/08/30 14:14:05;;;;;;;;;25.20;23.20;;;;;;;;5062240;28;8904;-78
2021/08/30 14:16:32;;;;;;;;;22.80;22.80;;;;;;;;5065274;28;8885;-77
2021/08/30 14:18:59;;;;;;;;;22.80;21.00;;;;;;;;5063875;28;9915;-76
2021/08/30 14:21:27;;;;;;;;;24.80;24.80;;;;;;;;5064595;28;8874;-77
2021/08/30 14:23:57;;;;;;;;;25.40;24.20;;;;;;;;5064944;28;8864;-77
2021/08/30 14:26:24;;;;;;;;;20.20;20.20;;;;;;;;5076830;28;8986;-79
2021/08/30 14:28:52;;;;;;;;;28.80;27.40;;;;;;;;5081298;28;8880;-77
2021/08/30 14:31:19;;;;;;;;;25.00;25.00;;;;;;;;5061481;28;8850;-77
2021/08/30 14:33:46;;;;;;;;;25.80;22.00;;;;;;;;5063495;28;8891;-75
2021/08/30 14:36:13;;;;;;;;;25.80;25.80;;;;;;;;5064732;28;8880;-77
2021/08/30 14:38:41;;;;;;;;;20.00;18.80;;;;;;;;5060376;28;8861;-77
2021/08/30 14:41:10;;;;;;;;;27.20;25.60;;;;;;;;5075322;28;8856;-77
2021/08/30 14:43:37;;;;;;;;;23.00;21.00;;;;;;;;5064856;28;8856;-77
2021/08/30 14:46:04;;;;;;;;;26.80;23.60;;;;;;;;5062483;28;8884;-77